San Amerigo — A8OK6 — position and weather

sailwx.info

Track history (hours):
 
Tides and Currents Weather Stations Pressure Air Temp Water Temp Dewpoint Dewpoint Depression Visibility Wind Speed Wind Dir Waves Ship Positions

San Amerigo

Last reported at 2017-Nov-13 12:00 UTC. Time now 2017-Nov-19 18:15 UTC.
Position N 13°24' W 016°30'.

Length 170 m; beam 27 m; draft 11.3 m.

Type: Ship (hazmat cat B). MMSI: 636091490.

Wind from 100 at 13 knots

Barometer 1012.0 mb
Air temperature 29.5 ° C
Visibility: greater than 2.2 NM
Dewpoint 15.9 ° C
Water temperature 33.0 ° C

Date/timePositionNaut miles runAvg speedWind from/ knotsBaromVisibWave heightAir tempDewpointWater temp
2017-Nov-13 12:00N 13°24' W 016°30'59 4.9 100 / 131012.0 2.2 29.515.933.0
2017-Nov-13 00:00N 12°48' W 017°18'72 8.0 270 / 61011.0 5.4 28.024.632.0
2017-Nov-12 15:00N 11°36' W 017°12'15910.6 310 / 61008.510.8 29.024.233.0
2017-Nov-12 00:00N 09°24' W 015°42'116 2.5 1011.5 2.2 28.023.932.0
2017-Nov-10 01:34N 09°07' W 013°46'310.0
2017-Nov-10 01:18N 09°10' W 013°45'310.0
2017-Nov-10 01:00N 09°13' W 013°45'5 9.6
2017-Nov-10 00:31N 09°17' W 013°44'510.0
2017-Nov-10 00:01N 09°22' W 013°44'5 9.9
2017-Nov-09 23:31N 09°27' W 013°43'3 6.7
2017-Nov-09 23:00N 09°31' W 013°43'0 0.3
2017-Nov-09 22:30N 09°31' W 013°43'0 0.0
2017-Nov-09 22:00N 09°31' W 013°43'0 0.0
2017-Nov-09 21:27N 09°31' W 013°43'0 0.0
2017-Nov-09 21:00N 09°31' W 013°43'0 0.0
2017-Nov-09 20:30N 09°31' W 013°43'0 0.0
2017-Nov-09 20:00N 09°31' W 013°43'0 0.0
2017-Nov-09 19:30N 09°31' W 013°43'0 0.0
2017-Nov-09 19:00N 09°31' W 013°43'0 0.0
2017-Nov-09 18:30N 09°31' W 013°43'0 0.0
2017-Nov-09 18:00N 09°31' W 013°43'0 0.0
2017-Nov-09 17:30N 09°31' W 013°43'0 0.0
2017-Nov-09 17:00N 09°31' W 013°43'0 0.0
2017-Nov-09 16:30N 09°31' W 013°43'0 0.0
2017-Nov-09 16:00N 09°31' W 013°43'0 0.0
2017-Nov-09 15:30N 09°31' W 013°43'0 0.0
2017-Nov-09 15:00N 09°31' W 013°43'0 0.0
2017-Nov-09 14:30N 09°31' W 013°43'0 0.0
2017-Nov-09 13:57N 09°31' W 013°43'0 0.0
2017-Nov-09 13:30N 09°31' W 013°43'0 0.0
2017-Nov-09 13:00N 09°31' W 013°43'0 0.0
2017-Nov-09 12:30N 09°31' W 013°43'0 0.0
2017-Nov-09 12:00N 09°31' W 013°43'0 0.0
2017-Nov-09 11:30N 09°31' W 013°43'0 0.3
2017-Nov-09 11:00N 09°31' W 013°44'3 5.5
2017-Nov-09 10:30N 09°28' W 013°43'2 3.8
2017-Nov-09 10:00N 09°26' W 013°43'1 2.6
2017-Nov-09 09:30N 09°25' W 013°43'1 2.4
2017-Nov-09 09:00N 09°24' W 013°43'3 5.9
2017-Nov-09 08:30N 09°22' W 013°45'3 6.3
2017-Nov-09 08:00N 09°20' W 013°48'3 6.3
2017-Nov-09 07:30N 09°18' W 013°50'3 6.6
2017-Nov-09 07:00N 09°17' W 013°54'3 6.7
2017-Nov-09 06:30N 09°17' W 013°57'5 9.8
2017-Nov-09 06:00N 09°17' W 014°02'510.0
2017-Nov-09 05:30N 09°17' W 014°07'510.0
2017-Nov-09 04:59N 09°17' W 014°12'510.1
2017-Nov-09 04:30N 09°17' W 014°17'2 4.8
2017-Nov-09 04:00N 09°17' W 014°20'5 9.3
2017-Nov-09 03:30N 09°18' W 014°24'5 9.8
2017-Nov-09 03:00N 09°19' W 014°29'2710.1
2017-Nov-09 00:22N 09°24' W 014°56'410.1
2017-Nov-09 00:00N 09°25' W 014°59'5535.1
2017-Nov-09 00:00N 09°24' W 014°54'1121.8 090 / 51012.0 5.4 27.523.433.0
2017-Nov-08 23:30N 09°25' W 015°05'610.4
2017-Nov-08 22:56N 09°25' W 015°11'62 7.8
2017-Nov-08 15:00N 09°54' W 016°06'25 8.4 060 / 71010.510.8 29.024.233.0
2017-Nov-08 12:00N 10°12' W 016°24'9911.0 020 / 91012.010.8 31.024.933.0
2017-Nov-08 03:00N 11°36' W 017°18'13110.9 010 / 121011.010.8 26.523.733.0
2017-Nov-07 15:00N 13°42' W 017°54'3110.2 330 / 111010.510.8 28.525.133.0
2017-Nov-07 12:00N 14°12' W 018°00'9010.0 350 / 91012.510.8 27.520.333.0
2017-Nov-07 03:00N 15°42' W 018°06'12610.5 340 / 161011.010.8 25.021.430.0
2017-Nov-06 15:00N 17°48' W 018°06'4214.1 350 / 151011.010.8 28.021.730.0
2017-Nov-06 12:00N 18°30' W 018°00'9610.7 010 / 151013.0 5.4 24.519.430.0
2017-Nov-06 03:00N 20°06' W 018°00'12310.3 020 / 251013.010.8 21.518.226.0
2017-Nov-05 15:00N 22°06' W 017°30'3411.4 020 / 231015.010.8 22.019.823.0
2017-Nov-05 12:00N 22°36' W 017°12'9610.7 040 / 271017.0 5.4 22.016.623.0
2017-Nov-05 03:00N 24°06' W 016°36'12710.6 040 / 201016.010.8 20.519.026.0
2017-Nov-04 15:00N 25°48' W 015°12'3411.4 030 / 201016.510.8 23.517.526.0
2017-Nov-04 12:00N 26°18' W 014°54'9510.5 050 / 151018.510.8 23.018.526.0
2017-Nov-04 03:00N 27°36' W 013°54'3510.9 040 / 131016.010.8 21.017.226.0
2017-Nov-03 23:49N 28°06' W 013°34'3 9.8
2017-Nov-03 23:29N 28°08' W 013°32'1610.0
2017-Nov-03 21:55N 28°21' W 013°22'910.2
2017-Nov-03 21:04N 28°29' W 013°17'110.0
2017-Nov-03 20:56N 28°30' W 013°16'810.4
2017-Nov-03 20:08N 28°36' W 013°10'810.6
2017-Nov-03 19:22N 28°43' W 013°05'610.4
2017-Nov-03 18:45N 28°48' W 013°01'310.2
2017-Nov-03 18:30N 28°51' W 012°59'510.2
2017-Nov-03 18:00N 28°55' W 012°56'29 9.7
2017-Nov-03 15:00N 29°18' W 012°36'3210.6 280 / 61016.010.8 22.516.426.0
2017-Nov-03 12:00N 29°42' W 012°12'   260 / 31017.510.8 23.016.926.0
Track history (hours):
 
Tides and Currents Weather Stations Pressure Air Temp Water Temp Dewpoint Dewpoint Depression Visibility Wind Speed Wind Dir Waves Ship Positions

San Amerigo

Last reported at 2017-Nov-13 12:00 UTC. Time now 2017-Nov-19 18:15 UTC.
Position N 13°24' W 016°30'.

Length 170 m; beam 27 m; draft 11.3 m.

Type: Ship (hazmat cat B). MMSI: 636091490.

Wind from 100 at 13 knots

Barometer 1012.0 mb
Air temperature 29.5 ° C
Visibility: greater than 2.2 NM
Dewpoint 15.9 ° C
Water temperature 33.0 ° C

Date/timePositionNaut miles runAvg speedWind from/ knotsBaromVisibWave heightAir tempDewpointWater temp
2017-Nov-13 12:00N 13°24' W 016°30'59 4.9 100 / 131012.0 2.2 29.515.933.0
2017-Nov-13 00:00N 12°48' W 017°18'72 8.0 270 / 61011.0 5.4 28.024.632.0
2017-Nov-12 15:00N 11°36' W 017°12'15910.6 310 / 61008.510.8 29.024.233.0
2017-Nov-12 00:00N 09°24' W 015°42'116 2.5 1011.5 2.2 28.023.932.0
2017-Nov-10 01:34N 09°07' W 013°46'310.0
2017-Nov-10 01:18N 09°10' W 013°45'310.0
2017-Nov-10 01:00N 09°13' W 013°45'5 9.6
2017-Nov-10 00:31N 09°17' W 013°44'510.0
2017-Nov-10 00:01N 09°22' W 013°44'5 9.9
2017-Nov-09 23:31N 09°27' W 013°43'3 6.7
2017-Nov-09 23:00N 09°31' W 013°43'0 0.3
2017-Nov-09 22:30N 09°31' W 013°43'0 0.0
2017-Nov-09 22:00N 09°31' W 013°43'0 0.0
2017-Nov-09 21:27N 09°31' W 013°43'0 0.0
2017-Nov-09 21:00N 09°31' W 013°43'0 0.0
2017-Nov-09 20:30N 09°31' W 013°43'0 0.0
2017-Nov-09 20:00N 09°31' W 013°43'0 0.0
2017-Nov-09 19:30N 09°31' W 013°43'0 0.0
2017-Nov-09 19:00N 09°31' W 013°43'0 0.0
2017-Nov-09 18:30N 09°31' W 013°43'0 0.0
2017-Nov-09 18:00N 09°31' W 013°43'0 0.0
2017-Nov-09 17:30N 09°31' W 013°43'0 0.0
2017-Nov-09 17:00N 09°31' W 013°43'0 0.0
2017-Nov-09 16:30N 09°31' W 013°43'0 0.0
2017-Nov-09 16:00N 09°31' W 013°43'0 0.0
2017-Nov-09 15:30N 09°31' W 013°43'0 0.0
2017-Nov-09 15:00N 09°31' W 013°43'0 0.0
2017-Nov-09 14:30N 09°31' W 013°43'0 0.0
2017-Nov-09 13:57N 09°31' W 013°43'0 0.0
2017-Nov-09 13:30N 09°31' W 013°43'0 0.0
2017-Nov-09 13:00N 09°31' W 013°43'0 0.0
2017-Nov-09 12:30N 09°31' W 013°43'0 0.0
2017-Nov-09 12:00N 09°31' W 013°43'0 0.0
2017-Nov-09 11:30N 09°31' W 013°43'0 0.3
2017-Nov-09 11:00N 09°31' W 013°44'3 5.5
2017-Nov-09 10:30N 09°28' W 013°43'2 3.8
2017-Nov-09 10:00N 09°26' W 013°43'1 2.6
2017-Nov-09 09:30N 09°25' W 013°43'1 2.4
2017-Nov-09 09:00N 09°24' W 013°43'3 5.9
2017-Nov-09 08:30N 09°22' W 013°45'3 6.3
2017-Nov-09 08:00N 09°20' W 013°48'3 6.3
2017-Nov-09 07:30N 09°18' W 013°50'3 6.6
2017-Nov-09 07:00N 09°17' W 013°54'3 6.7
2017-Nov-09 06:30N 09°17' W 013°57'5 9.8
2017-Nov-09 06:00N 09°17' W 014°02'510.0
2017-Nov-09 05:30N 09°17' W 014°07'510.0
2017-Nov-09 04:59N 09°17' W 014°12'510.1
2017-Nov-09 04:30N 09°17' W 014°17'2 4.8
2017-Nov-09 04:00N 09°17' W 014°20'5 9.3
2017-Nov-09 03:30N 09°18' W 014°24'5 9.8
2017-Nov-09 03:00N 09°19' W 014°29'2710.1
2017-Nov-09 00:22N 09°24' W 014°56'410.1
2017-Nov-09 00:00N 09°25' W 014°59'5535.1
2017-Nov-09 00:00N 09°24' W 014°54'1121.8 090 / 51012.0 5.4 27.523.433.0
2017-Nov-08 23:30N 09°25' W 015°05'610.4
2017-Nov-08 22:56N 09°25' W 015°11'62 7.8
2017-Nov-08 15:00N 09°54' W 016°06'25 8.4 060 / 71010.510.8 29.024.233.0
2017-Nov-08 12:00N 10°12' W 016°24'9911.0 020 / 91012.010.8 31.024.933.0
2017-Nov-08 03:00N 11°36' W 017°18'13110.9 010 / 121011.010.8 26.523.733.0
2017-Nov-07 15:00N 13°42' W 017°54'3110.2 330 / 111010.510.8 28.525.133.0
2017-Nov-07 12:00N 14°12' W 018°00'9010.0 350 / 91012.510.8 27.520.333.0
2017-Nov-07 03:00N 15°42' W 018°06'12610.5 340 / 161011.010.8 25.021.430.0
2017-Nov-06 15:00N 17°48' W 018°06'4214.1 350 / 151011.010.8 28.021.730.0
2017-Nov-06 12:00N 18°30' W 018°00'9610.7 010 / 151013.0 5.4 24.519.430.0
2017-Nov-06 03:00N 20°06' W 018°00'12310.3 020 / 251013.010.8 21.518.226.0
2017-Nov-05 15:00N 22°06' W 017°30'3411.4 020 / 231015.010.8 22.019.823.0
2017-Nov-05 12:00N 22°36' W 017°12'9610.7 040 / 271017.0 5.4 22.016.623.0
2017-Nov-05 03:00N 24°06' W 016°36'12710.6 040 / 201016.010.8 20.519.026.0
2017-Nov-04 15:00N 25°48' W 015°12'3411.4 030 / 201016.510.8 23.517.526.0
2017-Nov-04 12:00N 26°18' W 014°54'9510.5 050 / 151018.510.8 23.018.526.0
2017-Nov-04 03:00N 27°36' W 013°54'3510.9 040 / 131016.010.8 21.017.226.0
2017-Nov-03 23:49N 28°06' W 013°34'3 9.8
2017-Nov-03 23:29N 28°08' W 013°32'1610.0
2017-Nov-03 21:55N 28°21' W 013°22'910.2
2017-Nov-03 21:04N 28°29' W 013°17'110.0
2017-Nov-03 20:56N 28°30' W 013°16'810.4
2017-Nov-03 20:08N 28°36' W 013°10'810.6
2017-Nov-03 19:22N 28°43' W 013°05'610.4
2017-Nov-03 18:45N 28°48' W 013°01'310.2
2017-Nov-03 18:30N 28°51' W 012°59'510.2
2017-Nov-03 18:00N 28°55' W 012°56'29 9.7
2017-Nov-03 15:00N 29°18' W 012°36'3210.6 280 / 61016.010.8 22.516.426.0
2017-Nov-03 12:00N 29°42' W 012°12'   260 / 31017.510.8 23.016.926.0

Dump ship's entire track history